sensor_id;sensor_type;location;lat;lon;timestamp;P1;durP1;ratioP1;P2;durP2;ratioP2
17965;SDS011;9108;53.204;10.424;2022-12-05T00:01:41;85.78;;;32.45;;
17965;SDS011;9108;53.204;10.424;2022-12-05T00:04:10;81.07;;;31.35;;
17965;SDS011;9108;53.204;10.424;2022-12-05T00:06:38;82.90;;;31.73;;
17965;SDS011;9108;53.204;10.424;2022-12-05T00:09:06;86.40;;;31.48;;
17965;SDS011;9108;53.204;10.424;2022-12-05T00:11:34;89.13;;;32.67;;
17965;SDS011;9108;53.204;10.424;2022-12-05T00:14:02;84.30;;;31.75;;
17965;SDS011;9108;53.204;10.424;2022-12-05T00:16:30;84.18;;;30.90;;
17965;SDS011;9108;53.204;10.424;2022-12-05T00:18:59;78.45;;;30.67;;
17965;SDS011;9108;53.204;10.424;2022-12-05T00:21:27;90.43;;;32.03;;
17965;SDS011;9108;53.204;10.424;2022-12-05T00:23:55;82.97;;;30.75;;
17965;SDS011;9108;53.204;10.424;2022-12-05T00:26:22;87.40;;;31.45;;
17965;SDS011;9108;53.204;10.424;2022-12-05T00:28:50;86.30;;;31.02;;
17965;SDS011;9108;53.204;10.424;2022-12-05T00:31:18;84.97;;;31.92;;
17965;SDS011;9108;53.204;10.424;2022-12-05T00:33:45;82.60;;;30.92;;
17965;SDS011;9108;53.204;10.424;2022-12-05T00:36:15;87.00;;;31.10;;
17965;SDS011;9108;53.204;10.424;2022-12-05T00:38:43;84.70;;;31.67;;
17965;SDS011;9108;53.204;10.424;2022-12-05T00:41:11;87.13;;;32.07;;
17965;SDS011;9108;53.204;10.424;2022-12-05T00:43:38;92.00;;;31.98;;
17965;SDS011;9108;53.204;10.424;2022-12-05T00:46:06;88.28;;;32.03;;
17965;SDS011;9108;53.204;10.424;2022-12-05T00:48:34;85.18;;;31.23;;
17965;SDS011;9108;53.204;10.424;2022-12-05T00:51:02;86.10;;;31.05;;
17965;SDS011;9108;53.204;10.424;2022-12-05T00:53:31;88.82;;;32.35;;
17965;SDS011;9108;53.204;10.424;2022-12-05T00:56:00;83.53;;;31.02;;
17965;SDS011;9108;53.204;10.424;2022-12-05T00:58:28;83.30;;;31.05;;
17965;SDS011;9108;53.204;10.424;2022-12-05T01:00:55;81.15;;;30.52;;
17965;SDS011;9108;53.204;10.424;2022-12-05T01:03:22;84.90;;;31.48;;
17965;SDS011;9108;53.204;10.424;2022-12-05T01:05:49;86.63;;;32.00;;
17965;SDS011;9108;53.204;10.424;2022-12-05T01:08:16;84.50;;;31.50;;
17965;SDS011;9108;53.204;10.424;2022-12-05T01:10:52;84.75;;;31.95;;
17965;SDS011;9108;53.204;10.424;2022-12-05T01:13:19;80.68;;;31.15;;
17965;SDS011;9108;53.204;10.424;2022-12-05T01:15:46;83.53;;;31.92;;
17965;SDS011;9108;53.204;10.424;2022-12-05T01:18:13;83.22;;;31.38;;
17965;SDS011;9108;53.204;10.424;2022-12-05T01:20:41;79.20;;;30.00;;
17965;SDS011;9108;53.204;10.424;2022-12-05T01:23:08;76.95;;;30.15;;
17965;SDS011;9108;53.204;10.424;2022-12-05T01:25:37;75.72;;;29.90;;
17965;SDS011;9108;53.204;10.424;2022-12-05T01:28:06;77.57;;;30.23;;
17965;SDS011;9108;53.204;10.424;2022-12-05T01:30:36;78.22;;;30.77;;
17965;SDS011;9108;53.204;10.424;2022-12-05T01:33:03;77.18;;;30.73;;
17965;SDS011;9108;53.204;10.424;2022-12-05T01:35:31;75.03;;;30.10;;
17965;SDS011;9108;53.204;10.424;2022-12-05T01:37:58;80.80;;;30.88;;
17965;SDS011;9108;53.204;10.424;2022-12-05T01:40:25;78.60;;;29.63;;
17965;SDS011;9108;53.204;10.424;2022-12-05T01:42:52;73.55;;;29.60;;
17965;SDS011;9108;53.204;10.424;2022-12-05T01:45:21;77.10;;;29.95;;
17965;SDS011;9108;53.204;10.424;2022-12-05T01:47:50;73.38;;;29.20;;
17965;SDS011;9108;53.204;10.424;2022-12-05T01:50:17;75.03;;;29.13;;
17965;SDS011;9108;53.204;10.424;2022-12-05T01:52:44;74.00;;;29.47;;
17965;SDS011;9108;53.204;10.424;2022-12-05T01:55:12;74.20;;;29.27;;
17965;SDS011;9108;53.204;10.424;2022-12-05T01:57:40;77.68;;;30.80;;
17965;SDS011;9108;53.204;10.424;2022-12-05T02:00:09;75.70;;;30.00;;
17965;SDS011;9108;53.204;10.424;2022-12-05T02:02:39;75.68;;;29.92;;
17965;SDS011;9108;53.204;10.424;2022-12-05T02:05:08;79.60;;;30.73;;
17965;SDS011;9108;53.204;10.424;2022-12-05T02:07:35;73.95;;;29.38;;
17965;SDS011;9108;53.204;10.424;2022-12-05T02:10:04;76.80;;;29.90;;
17965;SDS011;9108;53.204;10.424;2022-12-05T02:12:32;73.85;;;30.05;;
17965;SDS011;9108;53.204;10.424;2022-12-05T02:15:10;77.72;;;30.98;;
17965;SDS011;9108;53.204;10.424;2022-12-05T02:17:55;70.00;;;29.25;;
17965;SDS011;9108;53.204;10.424;2022-12-05T02:20:29;74.90;;;29.83;;
17965;SDS011;9108;53.204;10.424;2022-12-05T02:23:20;74.70;;;29.42;;
17965;SDS011;9108;53.204;10.424;2022-12-05T02:25:59;75.37;;;29.37;;
17965;SDS011;9108;53.204;10.424;2022-12-05T02:28:44;69.93;;;28.67;;
17965;SDS011;9108;53.204;10.424;2022-12-05T02:31:17;71.82;;;29.45;;
17965;SDS011;9108;53.204;10.424;2022-12-05T02:33:45;70.05;;;28.23;;
17965;SDS011;9108;53.204;10.424;2022-12-05T02:36:14;71.43;;;28.85;;
17965;SDS011;9108;53.204;10.424;2022-12-05T02:38:44;69.30;;;28.55;;
17965;SDS011;9108;53.204;10.424;2022-12-05T02:41:15;69.85;;;28.33;;
17965;SDS011;9108;53.204;10.424;2022-12-05T02:43:46;72.25;;;28.85;;
17965;SDS011;9108;53.204;10.424;2022-12-05T02:46:18;69.13;;;28.23;;
17965;SDS011;9108;53.204;10.424;2022-12-05T02:48:46;69.72;;;28.45;;
17965;SDS011;9108;53.204;10.424;2022-12-05T02:51:17;68.43;;;28.60;;
17965;SDS011;9108;53.204;10.424;2022-12-05T02:53:45;73.55;;;28.42;;
17965;SDS011;9108;53.204;10.424;2022-12-05T02:56:13;72.83;;;28.60;;
17965;SDS011;9108;53.204;10.424;2022-12-05T02:58:41;72.82;;;27.90;;
17965;SDS011;9108;53.204;10.424;2022-12-05T03:01:10;69.77;;;28.40;;
17965;SDS011;9108;53.204;10.424;2022-12-05T03:03:38;72.10;;;28.75;;
17965;SDS011;9108;53.204;10.424;2022-12-05T03:06:06;74.43;;;29.00;;
17965;SDS011;9108;53.204;10.424;2022-12-05T03:08:36;72.90;;;28.98;;
17965;SDS011;9108;53.204;10.424;2022-12-05T03:11:05;77.32;;;30.15;;
17965;SDS011;9108;53.204;10.424;2022-12-05T03:13:34;74.13;;;29.05;;
17965;SDS011;9108;53.204;10.424;2022-12-05T03:16:04;72.47;;;29.40;;
17965;SDS011;9108;53.204;10.424;2022-12-05T03:18:34;75.88;;;29.60;;
17965;SDS011;9108;53.204;10.424;2022-12-05T03:21:04;74.30;;;29.40;;
17965;SDS011;9108;53.204;10.424;2022-12-05T03:23:35;71.68;;;28.98;;
17965;SDS011;9108;53.204;10.424;2022-12-05T03:26:04;71.05;;;29.08;;
17965;SDS011;9108;53.204;10.424;2022-12-05T03:28:39;71.88;;;28.63;;
17965;SDS011;9108;53.204;10.424;2022-12-05T03:31:10;68.40;;;27.70;;
17965;SDS011;9108;53.204;10.424;2022-12-05T03:33:40;71.72;;;28.27;;
17965;SDS011;9108;53.204;10.424;2022-12-05T03:36:10;75.70;;;28.77;;
17965;SDS011;9108;53.204;10.424;2022-12-05T03:38:42;73.72;;;28.50;;
17965;SDS011;9108;53.204;10.424;2022-12-05T03:41:12;70.67;;;27.90;;
17965;SDS011;9108;53.204;10.424;2022-12-05T03:43:42;72.28;;;27.90;;
17965;SDS011;9108;53.204;10.424;2022-12-05T03:46:11;69.93;;;27.73;;
17965;SDS011;9108;53.204;10.424;2022-12-05T03:48:42;70.65;;;27.85;;
17965;SDS011;9108;53.204;10.424;2022-12-05T03:51:14;71.53;;;28.20;;
17965;SDS011;9108;53.204;10.424;2022-12-05T03:53:43;68.47;;;26.50;;
17965;SDS011;9108;53.204;10.424;2022-12-05T03:56:11;66.97;;;26.65;;
17965;SDS011;9108;53.204;10.424;2022-12-05T03:58:42;66.38;;;26.50;;
17965;SDS011;9108;53.204;10.424;2022-12-05T04:01:09;66.95;;;26.80;;
17965;SDS011;9108;53.204;10.424;2022-12-05T04:03:39;68.88;;;27.27;;
17965;SDS011;9108;53.204;10.424;2022-12-05T04:06:12;72.07;;;27.27;;
17965;SDS011;9108;53.204;10.424;2022-12-05T04:08:45;71.88;;;27.70;;
17965;SDS011;9108;53.204;10.424;2022-12-05T04:11:13;72.70;;;28.00;;
17965;SDS011;9108;53.204;10.424;2022-12-05T04:13:42;71.65;;;27.38;;
17965;SDS011;9108;53.204;10.424;2022-12-05T04:16:11;71.00;;;27.57;;
17965;SDS011;9108;53.204;10.424;2022-12-05T04:18:57;75.43;;;28.88;;
17965;SDS011;9108;53.204;10.424;2022-12-05T04:21:27;67.22;;;26.90;;
17965;SDS011;9108;53.204;10.424;2022-12-05T04:24:06;71.13;;;28.27;;
17965;SDS011;9108;53.204;10.424;2022-12-05T04:26:53;73.75;;;28.45;;
17965;SDS011;9108;53.204;10.424;2022-12-05T04:29:24;73.40;;;28.58;;
17965;SDS011;9108;53.204;10.424;2022-12-05T04:31:55;76.63;;;29.20;;
17965;SDS011;9108;53.204;10.424;2022-12-05T04:34:24;76.13;;;29.30;;
17965;SDS011;9108;53.204;10.424;2022-12-05T04:36:54;75.75;;;29.58;;
17965;SDS011;9108;53.204;10.424;2022-12-05T04:39:26;80.03;;;29.80;;
17965;SDS011;9108;53.204;10.424;2022-12-05T04:41:56;74.82;;;29.17;;
17965;SDS011;9108;53.204;10.424;2022-12-05T04:44:27;78.13;;;29.83;;
17965;SDS011;9108;53.204;10.424;2022-12-05T04:46:56;80.95;;;30.08;;
17965;SDS011;9108;53.204;10.424;2022-12-05T04:49:25;83.35;;;31.35;;
17965;SDS011;9108;53.204;10.424;2022-12-05T04:51:54;86.77;;;32.03;;
17965;SDS011;9108;53.204;10.424;2022-12-05T04:54:23;83.20;;;31.23;;
17965;SDS011;9108;53.204;10.424;2022-12-05T04:56:59;79.65;;;31.33;;
17965;SDS011;9108;53.204;10.424;2022-12-05T04:59:28;81.07;;;31.10;;
17965;SDS011;9108;53.204;10.424;2022-12-05T05:01:56;84.28;;;31.67;;
17965;SDS011;9108;53.204;10.424;2022-12-05T05:04:25;90.13;;;32.28;;
17965;SDS011;9108;53.204;10.424;2022-12-05T05:06:52;93.45;;;32.72;;
17965;SDS011;9108;53.204;10.424;2022-12-05T05:09:20;98.05;;;34.50;;
17965;SDS011;9108;53.204;10.424;2022-12-05T05:11:47;94.95;;;33.47;;
17965;SDS011;9108;53.204;10.424;2022-12-05T05:14:16;101.38;;;34.83;;
17965;SDS011;9108;53.204;10.424;2022-12-05T05:16:43;102.30;;;35.17;;
17965;SDS011;9108;53.204;10.424;2022-12-05T05:19:11;103.82;;;35.22;;
17965;SDS011;9108;53.204;10.424;2022-12-05T05:21:39;105.68;;;35.78;;
17965;SDS011;9108;53.204;10.424;2022-12-05T05:24:07;111.05;;;36.25;;
17965;SDS011;9108;53.204;10.424;2022-12-05T05:26:35;109.88;;;35.85;;
17965;SDS011;9108;53.204;10.424;2022-12-05T05:29:03;109.80;;;35.75;;
17965;SDS011;9108;53.204;10.424;2022-12-05T05:31:32;111.68;;;37.22;;
17965;SDS011;9108;53.204;10.424;2022-12-05T05:33:59;111.90;;;37.17;;
17965;SDS011;9108;53.204;10.424;2022-12-05T05:36:26;112.95;;;36.88;;
17965;SDS011;9108;53.204;10.424;2022-12-05T05:38:54;109.60;;;37.53;;
17965;SDS011;9108;53.204;10.424;2022-12-05T05:41:22;112.95;;;37.22;;
17965;SDS011;9108;53.204;10.424;2022-12-05T05:43:49;117.90;;;37.00;;
17965;SDS011;9108;53.204;10.424;2022-12-05T05:46:17;114.50;;;37.08;;
17965;SDS011;9108;53.204;10.424;2022-12-05T05:48:46;109.97;;;36.33;;
17965;SDS011;9108;53.204;10.424;2022-12-05T05:51:14;117.88;;;37.30;;
17965;SDS011;9108;53.204;10.424;2022-12-05T05:53:42;121.47;;;37.97;;
17965;SDS011;9108;53.204;10.424;2022-12-05T05:56:10;124.35;;;38.65;;
17965;SDS011;9108;53.204;10.424;2022-12-05T05:58:38;125.57;;;38.50;;
17965;SDS011;9108;53.204;10.424;2022-12-05T06:01:06;131.30;;;39.67;;
17965;SDS011;9108;53.204;10.424;2022-12-05T06:03:33;131.73;;;39.67;;
17965;SDS011;9108;53.204;10.424;2022-12-05T06:06:02;135.95;;;39.35;;
17965;SDS011;9108;53.204;10.424;2022-12-05T06:08:31;135.75;;;41.70;;
17965;SDS011;9108;53.204;10.424;2022-12-05T06:10:58;134.43;;;39.03;;
17965;SDS011;9108;53.204;10.424;2022-12-05T06:13:25;136.32;;;39.67;;
17965;SDS011;9108;53.204;10.424;2022-12-05T06:15:53;125.90;;;38.42;;
17965;SDS011;9108;53.204;10.424;2022-12-05T06:18:20;132.50;;;39.58;;
17965;SDS011;9108;53.204;10.424;2022-12-05T06:20:50;137.95;;;40.10;;
17965;SDS011;9108;53.204;10.424;2022-12-05T06:23:19;133.68;;;39.22;;
17965;SDS011;9108;53.204;10.424;2022-12-05T06:25:47;135.63;;;39.13;;
17965;SDS011;9108;53.204;10.424;2022-12-05T06:28:14;129.77;;;38.25;;
17965;SDS011;9108;53.204;10.424;2022-12-05T06:30:41;129.93;;;37.15;;
17965;SDS011;9108;53.204;10.424;2022-12-05T06:33:09;129.55;;;36.30;;
17965;SDS011;9108;53.204;10.424;2022-12-05T06:35:36;137.15;;;37.30;;
17965;SDS011;9108;53.204;10.424;2022-12-05T06:38:03;130.02;;;36.92;;
17965;SDS011;9108;53.204;10.424;2022-12-05T06:40:33;125.72;;;35.95;;
17965;SDS011;9108;53.204;10.424;2022-12-05T06:43:00;122.80;;;35.13;;
17965;SDS011;9108;53.204;10.424;2022-12-05T06:45:27;125.57;;;35.70;;
17965;SDS011;9108;53.204;10.424;2022-12-05T06:47:54;125.50;;;34.10;;
17965;SDS011;9108;53.204;10.424;2022-12-05T06:50:21;132.98;;;35.90;;
17965;SDS011;9108;53.204;10.424;2022-12-05T06:52:48;126.40;;;33.55;;
17965;SDS011;9108;53.204;10.424;2022-12-05T06:55:16;129.70;;;35.00;;
17965;SDS011;9108;53.204;10.424;2022-12-05T06:57:44;125.32;;;34.65;;
17965;SDS011;9108;53.204;10.424;2022-12-05T07:00:12;123.60;;;33.60;;
17965;SDS011;9108;53.204;10.424;2022-12-05T07:02:57;121.15;;;32.80;;
17965;SDS011;9108;53.204;10.424;2022-12-05T07:05:24;108.72;;;32.40;;
17965;SDS011;9108;53.204;10.424;2022-12-05T07:07:51;116.68;;;32.65;;
17965;SDS011;9108;53.204;10.424;2022-12-05T07:10:18;120.07;;;31.92;;
17965;SDS011;9108;53.204;10.424;2022-12-05T07:12:47;118.18;;;32.28;;
17965;SDS011;9108;53.204;10.424;2022-12-05T07:15:14;118.05;;;31.73;;
17965;SDS011;9108;53.204;10.424;2022-12-05T07:17:41;108.30;;;30.17;;
17965;SDS011;9108;53.204;10.424;2022-12-05T07:20:09;112.50;;;31.05;;
17965;SDS011;9108;53.204;10.424;2022-12-05T07:22:36;99.35;;;29.70;;
17965;SDS011;9108;53.204;10.424;2022-12-05T07:25:04;95.43;;;28.25;;
17965;SDS011;9108;53.204;10.424;2022-12-05T07:27:31;97.00;;;28.55;;
17965;SDS011;9108;53.204;10.424;2022-12-05T07:30:00;94.90;;;27.42;;
17965;SDS011;9108;53.204;10.424;2022-12-05T07:32:31;94.37;;;27.30;;
17965;SDS011;9108;53.204;10.424;2022-12-05T07:34:58;84.03;;;26.33;;
17965;SDS011;9108;53.204;10.424;2022-12-05T07:37:26;85.82;;;26.10;;
17965;SDS011;9108;53.204;10.424;2022-12-05T07:39:53;80.95;;;26.13;;
17965;SDS011;9108;53.204;10.424;2022-12-05T07:42:20;80.80;;;25.52;;
17965;SDS011;9108;53.204;10.424;2022-12-05T07:44:47;78.13;;;25.38;;
17965;SDS011;9108;53.204;10.424;2022-12-05T07:47:15;84.03;;;25.88;;
17965;SDS011;9108;53.204;10.424;2022-12-05T07:49:42;76.70;;;24.85;;
17965;SDS011;9108;53.204;10.424;2022-12-05T07:52:10;75.78;;;24.50;;
17965;SDS011;9108;53.204;10.424;2022-12-05T07:54:37;82.50;;;25.75;;
17965;SDS011;9108;53.204;10.424;2022-12-05T07:57:04;76.00;;;24.00;;
17965;SDS011;9108;53.204;10.424;2022-12-05T07:59:31;75.80;;;24.30;;
17965;SDS011;9108;53.204;10.424;2022-12-05T08:01:58;76.20;;;25.00;;
17965;SDS011;9108;53.204;10.424;2022-12-05T08:04:27;80.35;;;24.02;;
17965;SDS011;9108;53.204;10.424;2022-12-05T08:06:54;80.68;;;25.55;;
17965;SDS011;9108;53.204;10.424;2022-12-05T08:09:21;81.55;;;25.50;;
17965;SDS011;9108;53.204;10.424;2022-12-05T08:11:48;85.40;;;25.70;;
17965;SDS011;9108;53.204;10.424;2022-12-05T08:14:15;88.50;;;27.42;;
17965;SDS011;9108;53.204;10.424;2022-12-05T08:16:42;90.55;;;26.60;;
17965;SDS011;9108;53.204;10.424;2022-12-05T08:19:10;84.03;;;26.25;;
17965;SDS011;9108;53.204;10.424;2022-12-05T08:21:39;88.70;;;27.13;;
17965;SDS011;9108;53.204;10.424;2022-12-05T08:24:06;89.40;;;27.00;;
17965;SDS011;9108;53.204;10.424;2022-12-05T08:26:34;92.43;;;28.13;;
17965;SDS011;9108;53.204;10.424;2022-12-05T08:29:03;90.93;;;28.23;;
17965;SDS011;9108;53.204;10.424;2022-12-05T08:31:31;98.95;;;29.85;;
17965;SDS011;9108;53.204;10.424;2022-12-05T08:33:58;100.20;;;29.83;;
17965;SDS011;9108;53.204;10.424;2022-12-05T08:36:26;90.60;;;28.65;;
17965;SDS011;9108;53.204;10.424;2022-12-05T08:38:56;94.22;;;29.08;;
17965;SDS011;9108;53.204;10.424;2022-12-05T08:41:23;89.90;;;27.27;;
17965;SDS011;9108;53.204;10.424;2022-12-05T08:43:52;95.18;;;29.08;;
17965;SDS011;9108;53.204;10.424;2022-12-05T08:46:19;95.80;;;28.75;;
17965;SDS011;9108;53.204;10.424;2022-12-05T08:48:47;94.13;;;28.53;;
17965;SDS011;9108;53.204;10.424;2022-12-05T08:51:14;96.63;;;28.20;;
17965;SDS011;9108;53.204;10.424;2022-12-05T08:53:41;93.43;;;28.48;;
17965;SDS011;9108;53.204;10.424;2022-12-05T08:56:09;98.63;;;28.73;;
17965;SDS011;9108;53.204;10.424;2022-12-05T08:58:37;93.35;;;28.27;;
17965;SDS011;9108;53.204;10.424;2022-12-05T09:01:04;89.28;;;28.08;;
17965;SDS011;9108;53.204;10.424;2022-12-05T09:03:32;89.00;;;26.70;;
17965;SDS011;9108;53.204;10.424;2022-12-05T09:06:05;84.18;;;26.75;;
17965;SDS011;9108;53.204;10.424;2022-12-05T09:08:33;89.53;;;27.67;;
17965;SDS011;9108;53.204;10.424;2022-12-05T09:11:03;82.77;;;26.17;;
17965;SDS011;9108;53.204;10.424;2022-12-05T09:13:31;87.45;;;27.60;;
17965;SDS011;9108;53.204;10.424;2022-12-05T09:16:03;88.63;;;28.25;;
17965;SDS011;9108;53.204;10.424;2022-12-05T09:18:30;87.82;;;26.92;;
17965;SDS011;9108;53.204;10.424;2022-12-05T09:20:57;85.03;;;26.58;;
17965;SDS011;9108;53.204;10.424;2022-12-05T09:23:24;85.20;;;26.92;;
17965;SDS011;9108;53.204;10.424;2022-12-05T09:25:52;77.78;;;25.23;;
17965;SDS011;9108;53.204;10.424;2022-12-05T09:28:22;80.68;;;26.40;;
17965;SDS011;9108;53.204;10.424;2022-12-05T09:30:55;79.78;;;25.67;;
17965;SDS011;9108;53.204;10.424;2022-12-05T09:33:23;80.22;;;24.55;;
17965;SDS011;9108;53.204;10.424;2022-12-05T09:35:50;76.80;;;24.92;;
17965;SDS011;9108;53.204;10.424;2022-12-05T09:38:17;76.93;;;24.77;;
17965;SDS011;9108;53.204;10.424;2022-12-05T09:40:44;69.82;;;23.25;;
17965;SDS011;9108;53.204;10.424;2022-12-05T09:43:14;76.43;;;24.45;;
17965;SDS011;9108;53.204;10.424;2022-12-05T09:45:48;72.00;;;24.40;;
17965;SDS011;9108;53.204;10.424;2022-12-05T09:48:19;70.97;;;22.57;;
17965;SDS011;9108;53.204;10.424;2022-12-05T09:50:48;70.60;;;23.88;;
17965;SDS011;9108;53.204;10.424;2022-12-05T09:53:21;71.25;;;22.95;;
17965;SDS011;9108;53.204;10.424;2022-12-05T09:55:52;71.95;;;23.25;;
17965;SDS011;9108;53.204;10.424;2022-12-05T09:58:22;68.82;;;22.92;;
17965;SDS011;9108;53.204;10.424;2022-12-05T10:00:52;67.50;;;21.58;;
17965;SDS011;9108;53.204;10.424;2022-12-05T10:03:24;60.23;;;21.50;;
17965;SDS011;9108;53.204;10.424;2022-12-05T10:05:55;62.83;;;20.35;;
17965;SDS011;9108;53.204;10.424;2022-12-05T10:08:28;58.75;;;19.83;;
17965;SDS011;9108;53.204;10.424;2022-12-05T10:10:59;59.50;;;20.08;;
17965;SDS011;9108;53.204;10.424;2022-12-05T10:13:29;58.20;;;19.88;;
17965;SDS011;9108;53.204;10.424;2022-12-05T10:16:02;61.13;;;19.93;;
17965;SDS011;9108;53.204;10.424;2022-12-05T10:18:35;56.78;;;19.67;;
17965;SDS011;9108;53.204;10.424;2022-12-05T10:21:04;55.50;;;18.83;;
17965;SDS011;9108;53.204;10.424;2022-12-05T10:23:37;57.15;;;18.98;;
17965;SDS011;9108;53.204;10.424;2022-12-05T10:26:06;56.83;;;19.83;;
17965;SDS011;9108;53.204;10.424;2022-12-05T10:28:35;53.67;;;18.90;;
17965;SDS011;9108;53.204;10.424;2022-12-05T10:31:05;49.03;;;17.77;;
17965;SDS011;9108;53.204;10.424;2022-12-05T10:33:36;49.92;;;17.83;;
17965;SDS011;9108;53.204;10.424;2022-12-05T10:36:10;50.97;;;17.55;;
17965;SDS011;9108;53.204;10.424;2022-12-05T10:38:38;49.13;;;17.40;;
17965;SDS011;9108;53.204;10.424;2022-12-05T10:41:05;49.25;;;18.13;;
17965;SDS011;9108;53.204;10.424;2022-12-05T10:43:33;51.28;;;18.08;;
17965;SDS011;9108;53.204;10.424;2022-12-05T10:46:02;46.67;;;17.50;;
17965;SDS011;9108;53.204;10.424;2022-12-05T10:48:30;52.70;;;17.43;;
17965;SDS011;9108;53.204;10.424;2022-12-05T10:51:02;49.25;;;17.98;;
17965;SDS011;9108;53.204;10.424;2022-12-05T10:53:30;47.53;;;18.15;;
17965;SDS011;9108;53.204;10.424;2022-12-05T10:56:00;47.40;;;17.00;;
17965;SDS011;9108;53.204;10.424;2022-12-05T10:58:28;49.92;;;17.17;;
17965;SDS011;9108;53.204;10.424;2022-12-05T11:00:56;50.35;;;18.17;;
17965;SDS011;9108;53.204;10.424;2022-12-05T11:03:24;51.00;;;18.17;;
17965;SDS011;9108;53.204;10.424;2022-12-05T11:05:53;49.95;;;17.67;;
17965;SDS011;9108;53.204;10.424;2022-12-05T11:08:23;53.95;;;18.80;;
17965;SDS011;9108;53.204;10.424;2022-12-05T11:10:57;49.97;;;17.65;;
17965;SDS011;9108;53.204;10.424;2022-12-05T11:13:26;48.95;;;17.45;;
17965;SDS011;9108;53.204;10.424;2022-12-05T11:15:53;50.78;;;17.88;;
17965;SDS011;9108;53.204;10.424;2022-12-05T11:18:25;46.75;;;17.20;;
17965;SDS011;9108;53.204;10.424;2022-12-05T11:20:53;46.58;;;17.13;;
17965;SDS011;9108;53.204;10.424;2022-12-05T11:23:24;44.75;;;16.60;;
17965;SDS011;9108;53.204;10.424;2022-12-05T11:25:51;47.38;;;16.55;;
17965;SDS011;9108;53.204;10.424;2022-12-05T11:28:32;47.65;;;18.05;;
17965;SDS011;9108;53.204;10.424;2022-12-05T11:31:00;51.08;;;17.98;;
17965;SDS011;9108;53.204;10.424;2022-12-05T11:33:28;50.10;;;18.60;;
17965;SDS011;9108;53.204;10.424;2022-12-05T11:35:58;50.75;;;17.70;;
17965;SDS011;9108;53.204;10.424;2022-12-05T11:38:28;39.92;;;15.35;;
17965;SDS011;9108;53.204;10.424;2022-12-05T11:41:00;39.70;;;15.88;;
17965;SDS011;9108;53.204;10.424;2022-12-05T11:43:38;40.70;;;15.73;;
17965;SDS011;9108;53.204;10.424;2022-12-05T11:46:11;43.33;;;15.53;;
17965;SDS011;9108;53.204;10.424;2022-12-05T11:48:44;40.28;;;15.07;;
17965;SDS011;9108;53.204;10.424;2022-12-05T11:51:18;41.78;;;15.70;;
17965;SDS011;9108;53.204;10.424;2022-12-05T11:54:05;40.10;;;15.32;;
17965;SDS011;9108;53.204;10.424;2022-12-05T11:56:35;45.33;;;16.27;;
17965;SDS011;9108;53.204;10.424;2022-12-05T12:01:53;40.13;;;15.65;;
17965;SDS011;9108;53.204;10.424;2022-12-05T12:04:30;39.38;;;15.73;;
17965;SDS011;9108;53.204;10.424;2022-12-05T12:07:06;41.10;;;15.45;;
17965;SDS011;9108;53.204;10.424;2022-12-05T12:09:41;43.95;;;15.70;;
17965;SDS011;9108;53.204;10.424;2022-12-05T12:12:13;36.92;;;14.70;;
17965;SDS011;9108;53.204;10.424;2022-12-05T12:14:43;40.25;;;14.52;;
17965;SDS011;9108;53.204;10.424;2022-12-05T12:17:14;39.67;;;15.15;;
17965;SDS011;9108;53.204;10.424;2022-12-05T12:22:35;36.25;;;14.10;;
17965;SDS011;9108;53.204;10.424;2022-12-05T12:25:14;37.90;;;14.65;;
17965;SDS011;9108;53.204;10.424;2022-12-05T12:27:46;40.83;;;14.63;;
17965;SDS011;9108;53.204;10.424;2022-12-05T12:30:16;37.83;;;14.73;;
17965;SDS011;9108;53.204;10.424;2022-12-05T12:32:48;35.88;;;14.23;;
17965;SDS011;9108;53.204;10.424;2022-12-05T12:35:28;37.03;;;14.13;;
17965;SDS011;9108;53.204;10.424;2022-12-05T12:38:00;38.15;;;14.40;;
17965;SDS011;9108;53.204;10.424;2022-12-05T12:40:32;38.35;;;14.90;;
17965;SDS011;9108;53.204;10.424;2022-12-05T12:43:04;40.10;;;14.90;;
17965;SDS011;9108;53.204;10.424;2022-12-05T12:45:36;36.87;;;14.47;;
17965;SDS011;9108;53.204;10.424;2022-12-05T12:48:12;38.63;;;14.82;;
17965;SDS011;9108;53.204;10.424;2022-12-05T12:50:43;35.50;;;14.45;;
17965;SDS011;9108;53.204;10.424;2022-12-05T12:53:19;35.58;;;14.13;;
17965;SDS011;9108;53.204;10.424;2022-12-05T12:55:55;35.92;;;14.02;;
17965;SDS011;9108;53.204;10.424;2022-12-05T12:58:30;44.08;;;15.80;;
17965;SDS011;9108;53.204;10.424;2022-12-05T13:01:01;38.72;;;14.57;;
17965;SDS011;9108;53.204;10.424;2022-12-05T13:03:33;36.70;;;14.20;;
17965;SDS011;9108;53.204;10.424;2022-12-05T13:06:04;35.08;;;13.48;;
17965;SDS011;9108;53.204;10.424;2022-12-05T13:08:34;35.50;;;14.00;;
17965;SDS011;9108;53.204;10.424;2022-12-05T13:11:05;33.67;;;13.40;;
17965;SDS011;9108;53.204;10.424;2022-12-05T13:13:35;30.35;;;12.60;;
17965;SDS011;9108;53.204;10.424;2022-12-05T13:16:03;33.45;;;12.98;;
17965;SDS011;9108;53.204;10.424;2022-12-05T13:18:31;33.60;;;12.77;;
17965;SDS011;9108;53.204;10.424;2022-12-05T13:20:59;27.90;;;11.57;;
17965;SDS011;9108;53.204;10.424;2022-12-05T13:23:28;26.00;;;11.27;;
17965;SDS011;9108;53.204;10.424;2022-12-05T13:25:57;26.17;;;10.77;;
17965;SDS011;9108;53.204;10.424;2022-12-05T13:28:27;30.70;;;11.47;;
17965;SDS011;9108;53.204;10.424;2022-12-05T13:30:55;27.42;;;11.55;;
17965;SDS011;9108;53.204;10.424;2022-12-05T13:33:26;27.83;;;11.35;;
17965;SDS011;9108;53.204;10.424;2022-12-05T13:35:54;28.77;;;11.32;;
17965;SDS011;9108;53.204;10.424;2022-12-05T13:38:39;25.87;;;10.70;;
17965;SDS011;9108;53.204;10.424;2022-12-05T13:41:37;25.45;;;10.77;;
17965;SDS011;9108;53.204;10.424;2022-12-05T13:44:27;23.63;;;10.23;;
17965;SDS011;9108;53.204;10.424;2022-12-05T13:46:57;23.75;;;10.25;;
17965;SDS011;9108;53.204;10.424;2022-12-05T13:49:31;28.25;;;10.77;;
17965;SDS011;9108;53.204;10.424;2022-12-05T13:52:05;23.98;;;9.88;;
17965;SDS011;9108;53.204;10.424;2022-12-05T13:54:33;23.85;;;10.18;;
17965;SDS011;9108;53.204;10.424;2022-12-05T13:57:08;23.67;;;10.00;;
17965;SDS011;9108;53.204;10.424;2022-12-05T13:59:59;23.05;;;10.60;;
17965;SDS011;9108;53.204;10.424;2022-12-05T14:08:02;20.52;;;9.50;;
17965;SDS011;9108;53.204;10.424;2022-12-05T14:11:08;23.67;;;9.20;;
17965;SDS011;9108;53.204;10.424;2022-12-05T14:13:39;22.90;;;9.50;;
17965;SDS011;9108;53.204;10.424;2022-12-05T14:18:56;20.70;;;9.30;;
17965;SDS011;9108;53.204;10.424;2022-12-05T14:21:32;22.42;;;9.57;;
17965;SDS011;9108;53.204;10.424;2022-12-05T14:24:02;19.75;;;9.63;;
17965;SDS011;9108;53.204;10.424;2022-12-05T14:26:36;23.13;;;10.10;;
17965;SDS011;9108;53.204;10.424;2022-12-05T14:29:13;21.90;;;9.48;;
17965;SDS011;9108;53.204;10.424;2022-12-05T14:31:46;21.83;;;9.77;;
17965;SDS011;9108;53.204;10.424;2022-12-05T14:34:21;21.50;;;9.60;;
17965;SDS011;9108;53.204;10.424;2022-12-05T14:36:59;23.10;;;9.60;;
17965;SDS011;9108;53.204;10.424;2022-12-05T14:39:32;23.92;;;9.73;;
17965;SDS011;9108;53.204;10.424;2022-12-05T14:42:00;19.88;;;9.38;;
17965;SDS011;9108;53.204;10.424;2022-12-05T14:44:28;24.73;;;9.80;;
17965;SDS011;9108;53.204;10.424;2022-12-05T14:46:57;22.33;;;9.68;;
17965;SDS011;9108;53.204;10.424;2022-12-05T14:49:35;21.42;;;9.52;;
17965;SDS011;9108;53.204;10.424;2022-12-05T14:52:07;21.70;;;9.90;;